createdAt,value
2017-08-03T00:00:23.521Z,1015.05
2017-08-03T00:01:32.730Z,1014.99
2017-08-03T00:02:41.939Z,1014.94
2017-08-03T00:03:51.151Z,1014.86
2017-08-03T00:05:00.361Z,1014.82
2017-08-03T00:06:09.568Z,1014.81
2017-08-03T00:07:19.432Z,1014.8
2017-08-03T00:08:28.961Z,1014.84
2017-08-03T00:09:38.174Z,1014.84
2017-08-03T00:10:48.030Z,1014.88
2017-08-03T00:11:57.286Z,1014.82
2017-08-03T00:13:06.811Z,1014.87
2017-08-03T00:14:16.019Z,1014.83
2017-08-03T00:15:25.548Z,1014.8
2017-08-03T00:16:35.404Z,1014.78
2017-08-03T00:17:44.764Z,1014.77
2017-08-03T00:18:54.293Z,1014.72
2017-08-03T00:20:03.176Z,1014.7
2017-08-03T00:21:12.380Z,1014.69
2017-08-03T00:22:21.922Z,1014.69
2017-08-03T00:23:31.579Z,1014.68
2017-08-03T00:24:40.784Z,1014.69
2017-08-03T00:25:49.670Z,1014.64
2017-08-03T00:26:59.210Z,1014.65
2017-08-03T00:28:08.420Z,1014.66
2017-08-03T00:29:17.671Z,1014.67
2017-08-03T00:30:27.847Z,1014.63
2017-08-03T00:31:37.373Z,1014.61
2017-08-03T00:32:47.224Z,1014.59
2017-08-03T00:33:56.426Z,1014.55
2017-08-03T00:35:05.782Z,1014.61
2017-08-03T00:36:15.635Z,1014.53
2017-08-03T00:37:25.496Z,1014.49
2017-08-03T00:38:35.030Z,1014.4
2017-08-03T00:39:44.555Z,1014.36
2017-08-03T00:40:54.459Z,1014.33
2017-08-03T00:42:03.992Z,1014.27
2017-08-03T00:43:13.198Z,1014.29
2017-08-03T00:44:22.402Z,1014.31
2017-08-03T00:45:32.253Z,1014.33
2017-08-03T00:46:41.185Z,1014.34
2017-08-03T00:47:50.713Z,1014.33
2017-08-03T00:49:00.241Z,1014.33
2017-08-03T00:50:09.458Z,1014.31
2017-08-03T00:51:19.000Z,1014.3
2017-08-03T00:52:28.632Z,1014.25
2017-08-03T00:53:38.480Z,1014.18
2017-08-03T00:54:47.375Z,1014.1
2017-08-03T00:55:56.586Z,1014.09
2017-08-03T00:57:06.766Z,1014.07
2017-08-03T00:58:16.084Z,1014.02
2017-08-03T00:59:24.973Z,1013.93
2017-08-03T01:00:34.184Z,1013.88
2017-08-03T01:01:43.719Z,1013.81
2017-08-03T01:02:53.574Z,1013.79
2017-08-03T01:04:03.257Z,1013.76
2017-08-03T01:05:12.790Z,1013.68
2017-08-03T01:06:22.320Z,1013.67
2017-08-03T01:07:32.172Z,1013.67
2017-08-03T01:08:42.038Z,1013.59
2017-08-03T01:09:51.294Z,1013.63
2017-08-03T01:11:00.831Z,1013.67
2017-08-03T01:12:10.686Z,1013.69
2017-08-03T01:13:20.226Z,1013.76
2017-08-03T01:14:29.111Z,1013.87
2017-08-03T01:15:38.052Z,1013.89
2017-08-03T01:16:47.586Z,1013.94
2017-08-03T01:17:56.793Z,1013.86
2017-08-03T01:19:06.319Z,1013.82
2017-08-03T01:20:15.530Z,1013.76
2017-08-03T01:21:25.106Z,1013.65
2017-08-03T01:22:34.960Z,1013.73
2017-08-03T01:23:44.538Z,1013.76
2017-08-03T01:24:54.079Z,1013.73
2017-08-03T01:26:03.606Z,1013.72
2017-08-03T01:27:13.625Z,1013.69
2017-08-03T01:28:22.840Z,1013.66
2017-08-03T01:29:32.697Z,1013.66
2017-08-03T01:30:41.905Z,1013.64
2017-08-03T01:31:51.769Z,1013.64
2017-08-03T01:33:00.805Z,1013.64
2017-08-03T01:34:10.334Z,1013.61
2017-08-03T01:35:19.869Z,1013.58
2017-08-03T01:36:29.399Z,1013.59
2017-08-03T01:37:39.251Z,1013.56
2017-08-03T01:38:48.932Z,1013.47
2017-08-03T01:39:58.462Z,1013.4
2017-08-03T01:41:07.674Z,1013.37
2017-08-03T01:42:16.879Z,1013.3
2017-08-03T01:43:27.056Z,1013.3
2017-08-03T01:44:36.561Z,1013.32
2017-08-03T01:45:46.097Z,1013.3
2017-08-03T01:46:55.637Z,1013.26
2017-08-03T01:48:05.168Z,1013.25
2017-08-03T01:49:14.745Z,1013.24
2017-08-03T01:50:24.202Z,1013.2
2017-08-03T01:51:33.409Z,1013.18
2017-08-03T01:52:42.619Z,1013.17
2017-08-03T01:53:52.147Z,1013.1
2017-08-03T01:55:01.029Z,1013.08
2017-08-03T01:56:10.864Z,1013.02
2017-08-03T01:57:19.751Z,1013
2017-08-03T01:58:28.964Z,1012.95
2017-08-03T01:59:37.848Z,1012.9
2017-08-03T02:00:46.731Z,1012.88
2017-08-03T02:01:56.328Z,1012.87
2017-08-03T02:03:06.181Z,1012.87
2017-08-03T02:04:16.039Z,1012.89
2017-08-03T02:05:25.244Z,1012.88
2017-08-03T02:06:34.776Z,1012.81
2017-08-03T02:07:44.353Z,1012.88
2017-08-03T02:08:53.237Z,1012.88
2017-08-03T02:10:02.128Z,1012.88
2017-08-03T02:11:12.303Z,1012.89
2017-08-03T02:12:21.839Z,1012.85
2017-08-03T02:13:30.726Z,1012.88
2017-08-03T02:14:39.936Z,1012.87
2017-08-03T02:15:48.818Z,1012.86
2017-08-03T02:16:58.350Z,1012.91
2017-08-03T02:18:07.876Z,1012.89
2017-08-03T02:19:17.783Z,1012.95
2017-08-03T02:20:27.307Z,1012.91
2017-08-03T02:21:36.834Z,1012.84
2017-08-03T02:22:45.737Z,1012.81
2017-08-03T02:23:54.942Z,1012.84
2017-08-03T02:25:04.952Z,1012.83
2017-08-03T02:26:14.484Z,1012.9
2017-08-03T02:27:23.697Z,1012.79
2017-08-03T02:28:33.223Z,1012.79
2017-08-03T02:29:42.753Z,1012.77
2017-08-03T02:30:51.737Z,1012.74
2017-08-03T02:32:01.264Z,1012.72
2017-08-03T02:33:10.799Z,1012.71
2017-08-03T02:34:20.325Z,1012.75
2017-08-03T02:35:29.856Z,1012.67
2017-08-03T02:36:39.390Z,1012.6
2017-08-03T02:37:48.603Z,1012.68
2017-08-03T02:38:57.808Z,1012.74
2017-08-03T02:40:07.672Z,1012.86
2017-08-03T02:41:16.888Z,1012.88
2017-08-03T02:42:26.100Z,1012.8
2017-08-03T02:43:36.279Z,1012.74
2017-08-03T02:44:45.492Z,1012.71
2017-08-03T02:45:55.345Z,1012.72
2017-08-03T02:47:04.554Z,1012.76
2017-08-03T02:48:14.085Z,1012.76
2017-08-03T02:49:23.936Z,1012.7
2017-08-03T02:50:33.146Z,1012.75
2017-08-03T02:51:42.684Z,1012.73
2017-08-03T02:52:52.539Z,1012.67
2017-08-03T02:54:01.582Z,1012.65
2017-08-03T02:55:10.467Z,1012.64
2017-08-03T02:56:20.322Z,1012.58
2017-08-03T02:57:29.221Z,1012.53
2017-08-03T02:58:38.111Z,1012.5
2017-08-03T02:59:48.588Z,1012.44
2017-08-03T03:00:57.469Z,1012.51
2017-08-03T03:02:06.998Z,1012.48
2017-08-03T03:03:15.879Z,1012.48
2017-08-03T03:04:25.411Z,1012.47
2017-08-03T03:05:35.367Z,1012.49
2017-08-03T03:06:45.228Z,1012.49
2017-08-03T03:07:54.433Z,1012.41
2017-08-03T03:09:03.963Z,1012.31
2017-08-03T03:10:12.846Z,1012.28
2017-08-03T03:11:21.978Z,1012.27
2017-08-03T03:12:31.506Z,1012.27
2017-08-03T03:13:41.040Z,1012.23
2017-08-03T03:14:50.569Z,1012.25
2017-08-03T03:16:00.098Z,1012.25
2017-08-03T03:17:09.558Z,1012.23
2017-08-03T03:18:19.088Z,1012.29
2017-08-03T03:19:28.295Z,1012.33
2017-08-03T03:20:37.502Z,1012.27
2017-08-03T03:21:46.707Z,1012.27
2017-08-03T03:22:55.636Z,1012.31
2017-08-03T03:24:05.493Z,1012.37
2017-08-03T03:25:14.699Z,1012.32
2017-08-03T03:26:23.580Z,1012.26
2017-08-03T03:27:32.786Z,1012.26
2017-08-03T03:28:41.967Z,1012.29
2017-08-03T03:29:51.501Z,1012.31
2017-08-03T03:31:01.680Z,1012.32
2017-08-03T03:32:11.868Z,1012.33
2017-08-03T03:33:21.071Z,1012.26
2017-08-03T03:34:30.329Z,1012.18
2017-08-03T03:35:39.865Z,1012.15
2017-08-03T03:36:49.069Z,1012.15
2017-08-03T03:37:58.610Z,1012.22
2017-08-03T03:39:07.815Z,1012.25
2017-08-03T03:40:17.041Z,1012.33
2017-08-03T03:41:26.573Z,1012.4
2017-08-03T03:42:36.103Z,1012.4
2017-08-03T03:43:45.635Z,1012.36
2017-08-03T03:44:54.841Z,1012.21
2017-08-03T03:46:04.425Z,1012.2
2017-08-03T03:47:13.637Z,1012.11
2017-08-03T03:48:23.175Z,1012.1
2017-08-03T03:49:32.378Z,1012.11
2017-08-03T03:50:41.907Z,1012.13
2017-08-03T03:51:50.998Z,1012.12
2017-08-03T03:53:00.530Z,1012.14
2017-08-03T03:54:10.064Z,1012.15
2017-08-03T03:55:19.269Z,1012.19
2017-08-03T03:56:28.476Z,1012.14
2017-08-03T03:57:38.305Z,1012.13
2017-08-03T03:58:47.835Z,1012.15
2017-08-03T03:59:57.364Z,1012.09
2017-08-03T04:01:06.572Z,1012.03
2017-08-03T04:02:16.424Z,1012.08
2017-08-03T04:03:25.793Z,1012.09
2017-08-03T04:04:35.645Z,1012.12
2017-08-03T04:05:44.853Z,1012.13
2017-08-03T04:06:54.707Z,1012.14
2017-08-03T04:08:04.576Z,1012.11
2017-08-03T04:09:14.208Z,1012.06
2017-08-03T04:10:23.737Z,1012.03
2017-08-03T04:11:32.948Z,1012.01
2017-08-03T04:12:42.151Z,1011.94
2017-08-03T04:13:51.678Z,1011.94
2017-08-03T04:15:00.762Z,1012.08
2017-08-03T04:16:09.968Z,1012.1
2017-08-03T04:17:19.182Z,1012.1
2017-08-03T04:18:28.707Z,1012.02
2017-08-03T04:19:37.592Z,1012.04
2017-08-03T04:20:47.598Z,1012.01
2017-08-03T04:21:57.151Z,1011.98
2017-08-03T04:23:06.359Z,1011.96
2017-08-03T04:24:15.893Z,1011.9
2017-08-03T04:25:25.437Z,1011.87
2017-08-03T04:26:35.290Z,1011.85
2017-08-03T04:27:44.822Z,1011.9
2017-08-03T04:28:54.387Z,1011.83
2017-08-03T04:30:03.610Z,1011.8
2017-08-03T04:31:13.860Z,1011.75
2017-08-03T04:32:22.745Z,1011.72
2017-08-03T04:33:32.609Z,1011.7
2017-08-03T04:34:42.134Z,1011.62
2017-08-03T04:35:51.665Z,1011.57
2017-08-03T04:37:01.208Z,1011.56
2017-08-03T04:38:10.416Z,1011.52
2017-08-03T04:39:19.300Z,1011.48
2017-08-03T04:40:28.828Z,1011.47
2017-08-03T04:41:38.688Z,1011.52
2017-08-03T04:42:48.237Z,1011.55
2017-08-03T04:43:57.122Z,1011.46
2017-08-03T04:45:06.328Z,1011.39
2017-08-03T04:46:15.532Z,1011.37
2017-08-03T04:47:25.398Z,1011.32
2017-08-03T04:48:34.606Z,1011.37
2017-08-03T04:49:44.455Z,1011.38
2017-08-03T04:50:53.661Z,1011.3
2017-08-03T04:52:03.515Z,1011.25
2017-08-03T04:53:12.450Z,1011.18
2017-08-03T04:54:21.659Z,1011.21
2017-08-03T04:55:30.547Z,1011.24
2017-08-03T04:56:40.080Z,1011.2
2017-08-03T04:57:49.438Z,1011.19
2017-08-03T04:58:58.644Z,1011.17
2017-08-03T05:00:08.175Z,1011.12
2017-08-03T05:01:17.711Z,1011.09
2017-08-03T05:02:27.886Z,1011.06
2017-08-03T05:03:36.990Z,1011.05
2017-08-03T05:04:46.199Z,1011.02
2017-08-03T05:05:55.407Z,1010.99
2017-08-03T05:07:05.582Z,1010.93
2017-08-03T05:08:15.759Z,1010.91
2017-08-03T05:09:26.188Z,1010.9
2017-08-03T05:10:36.041Z,1010.9
2017-08-03T05:11:45.249Z,1010.96
2017-08-03T05:12:55.106Z,1010.95
2017-08-03T05:14:04.648Z,1010.95
2017-08-03T05:15:14.280Z,1010.88
2017-08-03T05:16:23.174Z,1010.83
2017-08-03T05:17:32.702Z,1010.78
2017-08-03T05:18:41.922Z,1010.83
2017-08-03T05:19:50.830Z,1010.79
2017-08-03T05:21:00.340Z,1010.75
2017-08-03T05:22:09.548Z,1010.77
2017-08-03T05:23:19.076Z,1010.69
2017-08-03T05:24:28.614Z,1010.66
2017-08-03T05:25:37.825Z,1010.63
2017-08-03T05:26:46.859Z,1010.61
2017-08-03T05:27:55.745Z,1010.58
2017-08-03T05:29:05.279Z,1010.56
2017-08-03T05:30:14.825Z,1010.57
2017-08-03T05:31:24.037Z,1010.56
2017-08-03T05:32:34.383Z,1010.52
2017-08-03T05:33:43.592Z,1010.5
2017-08-03T05:34:53.120Z,1010.45
2017-08-03T05:36:02.654Z,1010.38
2017-08-03T05:37:12.521Z,1010.38
2017-08-03T05:38:21.880Z,1010.37
2017-08-03T05:39:31.089Z,1010.33
2017-08-03T05:40:40.301Z,1010.3
2017-08-03T05:41:50.158Z,1010.4
2017-08-03T05:43:00.015Z,1010.39
2017-08-03T05:44:09.378Z,1010.41
2017-08-03T05:45:18.267Z,1010.43
2017-08-03T05:46:28.453Z,1010.39
2017-08-03T05:47:38.008Z,1010.33
2017-08-03T05:48:48.066Z,1010.32
2017-08-03T05:49:57.991Z,1010.27
2017-08-03T05:51:07.798Z,1010.28
2017-08-03T05:52:18.337Z,1010.23
2017-08-03T05:53:28.024Z,1010.3
2017-08-03T05:54:37.593Z,1010.25
2017-08-03T05:55:48.270Z,1010.23
2017-08-03T05:56:58.538Z,1010.22
2017-08-03T05:58:08.445Z,1010.23
2017-08-03T05:59:17.658Z,1010.24
2017-08-03T06:00:27.567Z,1010.26
2017-08-03T06:01:37.214Z,1010.26
2017-08-03T06:02:47.107Z,1010.22
2017-08-03T06:03:56.070Z,1010.2
2017-08-03T06:05:05.713Z,1010.21
2017-08-03T06:06:15.915Z,1010.17
2017-08-03T06:07:26.115Z,1010.16
2017-08-03T06:08:35.369Z,1010.19
2017-08-03T06:09:44.620Z,1010.24
2017-08-03T06:10:53.891Z,1010.27
2017-08-03T06:12:03.985Z,1010.25
2017-08-03T06:13:13.280Z,1010.13
2017-08-03T06:14:22.540Z,1010.06
2017-08-03T06:15:31.448Z,1009.98
2017-08-03T06:16:41.252Z,1009.84
2017-08-03T06:17:50.662Z,1009.69
2017-08-03T06:19:00.139Z,1009.73
2017-08-03T06:20:10.883Z,1009.7
2017-08-03T06:21:20.432Z,1009.65
2017-08-03T06:22:29.659Z,1009.62
2017-08-03T06:23:38.549Z,1009.7
2017-08-03T06:24:48.038Z,1009.77
2017-08-03T06:25:57.319Z,1009.87
2017-08-03T06:27:06.795Z,1009.9
2017-08-03T06:28:16.396Z,1009.92
2017-08-03T06:29:25.710Z,1009.89
2017-08-03T06:30:35.057Z,1009.94
2017-08-03T06:31:44.043Z,1009.95
2017-08-03T06:32:53.363Z,1009.98
2017-08-03T06:34:02.345Z,1010
2017-08-03T06:35:11.983Z,1010.01
2017-08-03T06:36:21.424Z,1010.03
2017-08-03T06:37:30.678Z,1010.03
2017-08-03T06:38:40.236Z,1010.03
2017-08-03T06:39:50.008Z,1010.07
2017-08-03T06:40:59.590Z,1010.07
2017-08-03T06:42:09.333Z,1009.98
2017-08-03T06:43:18.660Z,1010.01
2017-08-03T06:44:27.937Z,1009.95
2017-08-03T06:45:37.349Z,1009.88
2017-08-03T06:46:46.928Z,1009.87
2017-08-03T06:47:55.975Z,1009.82
2017-08-03T06:49:05.281Z,1009.8
2017-08-03T06:50:14.974Z,1009.77
2017-08-03T06:51:23.919Z,1009.7
2017-08-03T06:52:33.755Z,1009.6
2017-08-03T06:53:43.658Z,1009.62
2017-08-03T06:54:53.334Z,1009.55
2017-08-03T06:56:02.946Z,1009.56
2017-08-03T06:57:11.877Z,1009.5
2017-08-03T06:58:21.125Z,1009.47
2017-08-03T06:59:30.692Z,1009.44
2017-08-03T07:00:40.028Z,1009.42
2017-08-03T07:01:49.365Z,1009.38
2017-08-03T07:02:58.314Z,1009.36
2017-08-03T07:04:07.937Z,1009.36
2017-08-03T07:05:18.077Z,1009.34
2017-08-03T07:06:27.663Z,1009.35
2017-08-03T07:07:37.352Z,1009.38
2017-08-03T07:08:46.994Z,1009.27
2017-08-03T07:09:55.961Z,1009.29
2017-08-03T07:11:05.698Z,1009.27
2017-08-03T07:12:14.979Z,1009.29
2017-08-03T07:13:24.274Z,1009.26
2017-08-03T07:14:33.883Z,1009.23
2017-08-03T07:15:43.168Z,1009.28
2017-08-03T07:16:52.895Z,1009.33
2017-08-03T07:18:01.865Z,1009.26
2017-08-03T07:19:10.822Z,1009.16
2017-08-03T07:20:20.613Z,1009.18
2017-08-03T07:21:30.563Z,1009.14
2017-08-03T07:22:40.268Z,1009.11
2017-08-03T07:23:49.538Z,1009.09
2017-08-03T07:24:59.195Z,1009.15
2017-08-03T07:26:08.677Z,1009.12
2017-08-03T07:27:18.308Z,1009.16
2017-08-03T07:28:28.235Z,1009.22
2017-08-03T07:29:38.176Z,1009.14
2017-08-03T07:30:47.788Z,1009.12
2017-08-03T07:31:57.448Z,1009.1
2017-08-03T07:33:07.055Z,1009.09
2017-08-03T07:34:17.034Z,1009.13
2017-08-03T07:35:26.632Z,1009.14
2017-08-03T07:36:35.910Z,1009.17
2017-08-03T07:37:45.867Z,1009.18
2017-08-03T07:38:54.810Z,1009.09
2017-08-03T07:40:04.256Z,1009.1
2017-08-03T07:41:13.899Z,1009.09
2017-08-03T07:42:23.202Z,1009.09
2017-08-03T07:43:32.788Z,1009.1
2017-08-03T07:44:42.040Z,1009.14
2017-08-03T07:45:52.166Z,1009.11
2017-08-03T07:47:02.038Z,1009.06
2017-08-03T07:48:11.352Z,1009.12
2017-08-03T07:49:20.945Z,1009.02
2017-08-03T07:50:30.241Z,1009.06
2017-08-03T07:51:39.935Z,1009.06
2017-08-03T07:52:49.212Z,1009.04
2017-08-03T07:53:58.824Z,1009.04
2017-08-03T07:55:08.094Z,1008.97
2017-08-03T07:56:16.990Z,1009
2017-08-03T07:57:25.927Z,1009.02
2017-08-03T07:58:35.783Z,1009.01
2017-08-03T07:59:45.361Z,1008.95
2017-08-03T08:00:54.914Z,1008.97
2017-08-03T08:02:04.276Z,1008.92
2017-08-03T08:03:13.689Z,1008.95
2017-08-03T08:04:23.043Z,1008.91
2017-08-03T08:05:32.307Z,1008.77
2017-08-03T08:06:41.554Z,1008.78
2017-08-03T08:07:51.137Z,1008.74
2017-08-03T08:09:01.604Z,1008.8
2017-08-03T08:10:10.819Z,1008.81
2017-08-03T08:11:20.417Z,1008.79
2017-08-03T08:12:30.358Z,1008.8
2017-08-03T08:13:40.231Z,1008.79
2017-08-03T08:14:50.490Z,1008.77
2017-08-03T08:15:59.738Z,1008.84
2017-08-03T08:17:09.214Z,1008.75
2017-08-03T08:18:19.102Z,1008.75
2017-08-03T08:19:29.026Z,1008.78
2017-08-03T08:20:38.896Z,1008.75
2017-08-03T08:21:48.756Z,1008.77
2017-08-03T08:22:57.720Z,1008.79
2017-08-03T08:24:07.253Z,1008.71
2017-08-03T08:25:16.485Z,1008.8
2017-08-03T08:26:25.888Z,1008.69
2017-08-03T08:27:35.496Z,1008.75
2017-08-03T08:28:45.047Z,1008.78
2017-08-03T08:29:54.264Z,1008.8
2017-08-03T08:31:04.445Z,1008.68
2017-08-03T08:32:14.027Z,1008.68
2017-08-03T08:33:23.489Z,1008.68
2017-08-03T08:34:33.000Z,1008.6
2017-08-03T08:35:42.137Z,1008.57
2017-08-03T08:36:52.028Z,1008.6
2017-08-03T08:38:02.176Z,1008.57
2017-08-03T08:39:11.726Z,1008.5
2017-08-03T08:40:20.656Z,1008.52
2017-08-03T08:41:30.222Z,1008.49
2017-08-03T08:42:40.148Z,1008.49
2017-08-03T08:43:50.648Z,1008.49
2017-08-03T08:45:00.517Z,1008.42
2017-08-03T08:46:11.470Z,1008.34
2017-08-03T08:47:21.504Z,1008.33
2017-08-03T08:48:30.962Z,1008.39
2017-08-03T08:49:41.188Z,1008.34
2017-08-03T08:50:51.035Z,1008.29
2017-08-03T08:52:01.024Z,1008.17
2017-08-03T08:53:10.554Z,1008.19
2017-08-03T08:54:19.469Z,1008.2
2017-08-03T08:55:29.816Z,1008.21
2017-08-03T08:56:39.390Z,1008.21
2017-08-03T08:57:48.299Z,1008.2
2017-08-03T08:58:57.973Z,1008.14
2017-08-03T09:00:07.540Z,1008.15
2017-08-03T09:01:17.681Z,1008.1
2017-08-03T09:02:27.509Z,1008.09
2017-08-03T09:03:37.468Z,1008
2017-08-03T09:04:46.697Z,1007.94
2017-08-03T09:05:56.274Z,1007.91
2017-08-03T09:07:06.599Z,1007.98
2017-08-03T09:08:16.036Z,1007.98
2017-08-03T09:09:25.270Z,1007.91
2017-08-03T09:10:35.128Z,1007.91
2017-08-03T09:11:44.990Z,1007.91
2017-08-03T09:12:54.684Z,1007.91
2017-08-03T09:14:03.897Z,1007.94
2017-08-03T09:15:13.437Z,1007.95
2017-08-03T09:16:22.335Z,1008.02
2017-08-03T09:17:31.546Z,1007.97
2017-08-03T09:18:41.459Z,1008.03
2017-08-03T09:19:50.992Z,1008.09
2017-08-03T09:21:00.206Z,1008.22
2017-08-03T09:22:09.094Z,1008.1
2017-08-03T09:23:18.632Z,1008.29
2017-08-03T09:24:27.997Z,1008.06
2017-08-03T09:25:37.861Z,1008.12
2017-08-03T09:26:46.784Z,1008.09
2017-08-03T09:27:56.344Z,1008.04
2017-08-03T09:29:06.207Z,1008.07
2017-08-03T09:30:15.896Z,1008.09
2017-08-03T09:31:25.432Z,1008.05
2017-08-03T09:32:34.970Z,1008.07
2017-08-03T09:33:44.524Z,1008.08
2017-08-03T09:34:53.738Z,1008.03
2017-08-03T09:36:03.427Z,1008.07
2017-08-03T09:37:12.662Z,1008.14
2017-08-03T09:38:21.873Z,1008.08
2017-08-03T09:39:31.084Z,1008.16
2017-08-03T09:40:40.297Z,1008.18
2017-08-03T09:41:50.408Z,1008.2
2017-08-03T09:43:00.276Z,1008.16
2017-08-03T09:44:10.135Z,1008.2
2017-08-03T09:45:19.023Z,1008.24
2017-08-03T09:46:27.923Z,1008.25
2017-08-03T09:47:37.206Z,1008.25
2017-08-03T09:48:47.071Z,1008.14
2017-08-03T09:49:56.282Z,1008.17
2017-08-03T09:51:05.496Z,1008.13
2017-08-03T09:52:14.710Z,1008.16
2017-08-03T09:53:24.313Z,1008.17
2017-08-03T09:54:33.546Z,1008.17
2017-08-03T09:55:42.435Z,1008.08
2017-08-03T09:56:51.975Z,1008.12
2017-08-03T09:58:01.511Z,1008.12
2017-08-03T09:59:11.379Z,1008.15
2017-08-03T10:00:20.278Z,1008.17
2017-08-03T10:01:29.498Z,1008.06
2017-08-03T10:02:38.383Z,1007.99
2017-08-03T10:03:47.955Z,1007.97
2017-08-03T10:04:57.638Z,1007.99
2017-08-03T10:06:06.928Z,1007.89
2017-08-03T10:07:16.786Z,1007.87
2017-08-03T10:08:26.323Z,1007.85
2017-08-03T10:09:35.872Z,1007.85
2017-08-03T10:10:45.284Z,1007.82
2017-08-03T10:11:54.827Z,1007.83
2017-08-03T10:13:04.365Z,1007.82
2017-08-03T10:14:13.907Z,1007.83
2017-08-03T10:15:24.100Z,1007.81
2017-08-03T10:16:33.412Z,1007.7
2017-08-03T10:17:42.622Z,1007.76
2017-08-03T10:18:51.835Z,1007.72
2017-08-03T10:20:01.695Z,1007.75
2017-08-03T10:21:11.232Z,1007.72
2017-08-03T10:22:20.175Z,1007.73
2017-08-03T10:23:29.746Z,1007.73
2017-08-03T10:24:39.603Z,1007.67
2017-08-03T10:25:48.524Z,1007.63
2017-08-03T10:26:58.057Z,1007.65
2017-08-03T10:28:08.021Z,1007.69
2017-08-03T10:29:17.558Z,1007.7
2017-08-03T10:30:27.418Z,1007.68
2017-08-03T10:31:37.278Z,1007.72
2017-08-03T10:32:46.164Z,1007.75
2017-08-03T10:33:56.025Z,1007.75
2017-08-03T10:35:05.563Z,1007.83
2017-08-03T10:36:15.105Z,1007.74
2017-08-03T10:37:24.966Z,1007.7
2017-08-03T10:38:34.502Z,1007.66
2017-08-03T10:39:43.713Z,1007.59
2017-08-03T10:40:53.248Z,1007.61
2017-08-03T10:42:02.784Z,1007.64
2017-08-03T10:43:11.677Z,1007.63
2017-08-03T10:44:21.212Z,1007.68
2017-08-03T10:45:30.799Z,1007.62
2017-08-03T10:46:40.353Z,1007.55
2017-08-03T10:47:50.221Z,1007.6
2017-08-03T10:49:00.080Z,1007.53
2017-08-03T10:50:09.617Z,1007.6
2017-08-03T10:51:19.302Z,1007.34
2017-08-03T10:52:29.190Z,1007.36
2017-08-03T10:53:38.083Z,1007.33
2017-08-03T10:54:47.965Z,1007.33
2017-08-03T10:55:56.860Z,1007.34
2017-08-03T10:57:06.274Z,1007.35
2017-08-03T10:58:15.809Z,1007.35
2017-08-03T10:59:25.021Z,1007.26
2017-08-03T11:00:34.241Z,1007.32
2017-08-03T11:01:43.777Z,1007.26
2017-08-03T11:02:53.244Z,1007.3
2017-08-03T11:04:02.465Z,1007.17
2017-08-03T11:05:11.686Z,1007.26
2017-08-03T11:06:21.546Z,1007.22
2017-08-03T11:07:31.172Z,1007.27
2017-08-03T11:08:40.747Z,1007.3
2017-08-03T11:09:49.976Z,1007.3
2017-08-03T11:10:59.198Z,1007.23
2017-08-03T11:12:09.065Z,1007.23
2017-08-03T11:13:18.283Z,1007.14
2017-08-03T11:14:27.501Z,1007.22
2017-08-03T11:15:37.039Z,1007.24
2017-08-03T11:16:46.580Z,1007.19
2017-08-03T11:17:55.794Z,1007.2
2017-08-03T11:19:05.333Z,1007.23
2017-08-03T11:20:14.552Z,1007.21
2017-08-03T11:21:24.093Z,1007.21
2017-08-03T11:22:33.308Z,1007.27
2017-08-03T11:23:42.528Z,1007.34
2017-08-03T11:24:52.060Z,1007.25
2017-08-03T11:26:01.920Z,1007.19
2017-08-03T11:27:11.469Z,1007.26
2017-08-03T11:28:21.011Z,1007.24
2017-08-03T11:29:30.565Z,1007.42
2017-08-03T11:30:39.456Z,1007.14
2017-08-03T11:31:48.667Z,1007.22
2017-08-03T11:32:58.216Z,1007.18
2017-08-03T11:34:08.286Z,1007.19
2017-08-03T11:35:17.501Z,1007.19
2017-08-03T11:36:26.720Z,1007.24
2017-08-03T11:37:35.934Z,1007.18
2017-08-03T11:38:45.148Z,1007.13
2017-08-03T11:39:54.763Z,1007.18
2017-08-03T11:41:04.634Z,1007.1
2017-08-03T11:42:14.505Z,1007.05
2017-08-03T11:43:24.369Z,1007.14
2017-08-03T11:44:33.905Z,1007.14
2017-08-03T11:45:43.965Z,1007.18
2017-08-03T11:46:53.187Z,1007.01
2017-08-03T11:48:02.402Z,1007.25
2017-08-03T11:49:12.268Z,1007.22
2017-08-03T11:50:21.487Z,1007.13
2017-08-03T11:51:31.089Z,1007.19
2017-08-03T11:52:39.979Z,1007.16
2017-08-03T11:53:49.518Z,1007.23
2017-08-03T11:54:59.057Z,1007.21
2017-08-03T11:56:07.948Z,1007.1
2017-08-03T11:57:17.545Z,1007.19
2017-08-03T11:58:27.098Z,1007.17
2017-08-03T11:59:36.958Z,1007.25
2017-08-03T12:00:46.821Z,1007.14
2017-08-03T12:01:56.032Z,1007.26
2017-08-03T12:03:05.897Z,1007.26
2017-08-03T12:04:15.132Z,1007.25
2017-08-03T12:05:24.674Z,1007.19
2017-08-03T12:06:33.890Z,1007.25
2017-08-03T12:07:43.432Z,1007.22
2017-08-03T12:08:52.856Z,1007.16
2017-08-03T12:10:02.395Z,1007.27
2017-08-03T12:11:11.614Z,1007.22
2017-08-03T12:12:21.480Z,1007.24
2017-08-03T12:13:30.368Z,1007.21
2017-08-03T12:14:39.893Z,1007.25
2017-08-03T12:15:49.116Z,1007.18
2017-08-03T12:16:58.336Z,1007.16
2017-08-03T12:18:07.875Z,1007.04
2017-08-03T12:19:17.744Z,1007.15
2017-08-03T12:20:27.021Z,1007.14
2017-08-03T12:21:36.561Z,1007.22
2017-08-03T12:22:45.777Z,1007.23
2017-08-03T12:23:54.682Z,1007.18
2017-08-03T12:25:04.547Z,1007.25
2017-08-03T12:26:14.097Z,1007.2
2017-08-03T12:27:23.643Z,1007.15
2017-08-03T12:28:33.189Z,1007.26
2017-08-03T12:29:42.730Z,1007.15
2017-08-03T12:30:52.613Z,1007.26
2017-08-03T12:32:02.310Z,1007.26
2017-08-03T12:33:12.184Z,1007.31
2017-08-03T12:34:22.050Z,1007.45
2017-08-03T12:35:31.265Z,1007.32
2017-08-03T12:36:40.487Z,1007.31
2017-08-03T12:37:50.433Z,1007.28
2017-08-03T12:38:59.657Z,1007.24
2017-08-03T12:40:09.201Z,1007.28
2017-08-03T12:41:18.740Z,1007.32
2017-08-03T12:42:28.286Z,1007.28
2017-08-03T12:43:38.202Z,1007.42
2017-08-03T12:44:47.739Z,1007.38
2017-08-03T12:45:57.311Z,1007.15
2017-08-03T12:47:06.853Z,1007.23
2017-08-03T12:48:16.721Z,1007.27
2017-08-03T12:49:26.661Z,1007.21
2017-08-03T12:50:36.856Z,1007.22
2017-08-03T12:51:46.410Z,1007.29
2017-08-03T12:52:56.278Z,1007.26
2017-08-03T12:54:05.498Z,1007.41
2017-08-03T12:55:14.641Z,1007.34
2017-08-03T12:56:24.192Z,1007.39
2017-08-03T12:57:34.058Z,1007.53
2017-08-03T12:58:43.597Z,1007.36
2017-08-03T12:59:53.478Z,1007.39
2017-08-03T13:01:03.275Z,1007.45
2017-08-03T13:02:12.497Z,1007.54
2017-08-03T13:03:22.370Z,1007.5
2017-08-03T13:04:31.926Z,1007.45
2017-08-03T13:05:41.496Z,1007.39
2017-08-03T13:06:51.092Z,1007.37
2017-08-03T13:08:00.647Z,1007.44
2017-08-03T13:09:10.191Z,1007.32
2017-08-03T13:10:19.440Z,1007.41
2017-08-03T13:11:28.334Z,1007.43
2017-08-03T13:12:37.983Z,1007.48
2017-08-03T13:13:46.880Z,1007.45
2017-08-03T13:14:56.098Z,1007.52
2017-08-03T13:16:05.643Z,1007.46
2017-08-03T13:17:14.559Z,1007.48
2017-08-03T13:18:23.504Z,1007.45
2017-08-03T13:19:33.049Z,1007.42
2017-08-03T13:20:41.945Z,1007.45
2017-08-03T13:21:51.491Z,1007.47
2017-08-03T13:23:00.711Z,1007.53
2017-08-03T13:24:10.780Z,1007.57
2017-08-03T13:25:19.678Z,1007.79
2017-08-03T13:26:28.898Z,1007.62
2017-08-03T13:27:38.120Z,1007.6
2017-08-03T13:28:47.997Z,1007.87
2017-08-03T13:29:58.174Z,1007.6
2017-08-03T13:31:07.077Z,1007.85
2017-08-03T13:32:16.301Z,1007.69
2017-08-03T13:33:25.572Z,1007.59
2017-08-03T13:34:35.464Z,1007.75
2017-08-03T13:35:45.413Z,1007.8
2017-08-03T13:36:54.962Z,1007.65
2017-08-03T13:38:04.201Z,1007.77
2017-08-03T13:39:14.085Z,1007.85
2017-08-03T13:40:23.634Z,1007.65
2017-08-03T13:41:33.694Z,1007.74
2017-08-03T13:42:42.603Z,1007.72
2017-08-03T13:43:52.155Z,1007.87
2017-08-03T13:45:01.057Z,1007.82
2017-08-03T13:46:10.285Z,1007.76
2017-08-03T13:47:19.973Z,1007.77
2017-08-03T13:48:29.196Z,1007.9
2017-08-03T13:49:38.738Z,1007.89
2017-08-03T13:50:47.958Z,1007.88
2017-08-03T13:51:57.503Z,1007.9
2017-08-03T13:53:06.404Z,1008.04
2017-08-03T13:54:15.305Z,1007.96
2017-08-03T13:55:24.555Z,1008.28
2017-08-03T13:56:33.778Z,1008.16
2017-08-03T13:57:43.002Z,1008.28
2017-08-03T13:58:52.728Z,1008.43
2017-08-03T14:00:02.281Z,1008.34
2017-08-03T14:01:11.838Z,1008.14
2017-08-03T14:02:22.036Z,1008.35
2017-08-03T14:03:31.260Z,1008.22